Time;durP1;ratioP1;P1;durP2;ratioP2;P2;SDS_P1;SDS_P2;PMS_P1;PMS_P2;Temp;Humidity;BMP_temperature;BMP_pressure;BME280_temperature;BME280_humidity;BME280_pressure;Samples;Min_cycle;Max_cycle;Signal;HPM_P1;HPM_P2
2022/04/02 00:01:14;;;;;;;5.85;3.38;;;2.70;99.90;;;;;;4999263;28;20053;-78
2022/04/02 00:03:40;;;;;;;6.03;3.35;;;2.60;99.90;;;;;;5001275;28;20053;-77
2022/04/02 00:06:06;;;;;;;5.55;3.45;;;2.60;99.90;;;;;;5003443;28;20171;-78
2022/04/02 00:08:32;;;;;;;5.57;3.20;;;2.60;99.90;;;;;;5002176;28;20129;-77
2022/04/02 00:10:58;;;;;;;4.50;2.90;;;2.60;99.90;;;;;;5003066;28;20046;-77
2022/04/02 00:13:24;;;;;;;6.05;3.13;;;2.60;99.90;;;;;;4999305;28;20053;-78
2022/04/02 00:15:49;;;;;;;7.85;4.07;;;2.60;99.90;;;;;;5003592;28;20038;-77
2022/04/02 00:18:15;;;;;;;5.55;3.10;;;2.60;99.90;;;;;;5005604;28;20053;-77
2022/04/02 00:20:41;;;;;;;5.03;3.22;;;2.60;99.90;;;;;;5004893;28;20074;-77
2022/04/02 00:25:51;;;;;;;7.90;3.38;;;2.60;99.90;;;;;;4996386;28;20587;-77
2022/04/02 00:28:19;;;;;;;5.82;3.53;;;2.60;99.90;;;;;;5004171;28;20139;-77
2022/04/02 00:30:45;;;;;;;4.85;3.40;;;2.60;99.90;;;;;;5000882;28;20046;-77
2022/04/02 00:33:11;;;;;;;7.03;3.42;;;2.50;99.90;;;;;;5002114;28;20065;-77
2022/04/02 00:35:37;;;;;;;6.90;3.20;;;2.50;99.90;;;;;;5001838;28;20124;-77
2022/04/02 00:38:03;;;;;;;5.60;3.22;;;2.50;99.90;;;;;;5002233;28;20180;-78
2022/04/02 00:40:29;;;;;;;5.57;3.30;;;2.50;99.90;;;;;;5000783;28;20141;-77
2022/04/02 00:42:55;;;;;;;5.30;3.63;;;2.50;99.90;;;;;;5004634;28;20073;-77
2022/04/02 00:45:20;;;;;;;6.05;3.35;;;2.40;99.90;;;;;;5000934;28;20054;-77
2022/04/02 00:47:46;;;;;;;5.60;3.55;;;2.40;99.90;;;;;;5003979;28;20075;-77
2022/04/02 00:50:12;;;;;;;6.35;3.60;;;2.40;99.90;;;;;;5001850;28;20129;-77
2022/04/02 00:52:39;;;;;;;7.70;3.42;;;2.40;99.90;;;;;;5020726;28;20397;-78
2022/04/02 00:55:06;;;;;;;9.55;3.50;;;2.40;99.90;;;;;;5002558;28;20060;-77
2022/04/02 00:57:32;;;;;;;6.78;3.78;;;2.40;99.90;;;;;;5007162;28;20042;-78
2022/04/02 00:59:57;;;;;;;5.53;3.47;;;2.40;99.90;;;;;;5004043;28;20053;-78
2022/04/02 01:02:23;;;;;;;5.13;3.40;;;2.30;99.90;;;;;;5005109;28;20050;-77
2022/04/02 01:04:49;;;;;;;6.82;3.80;;;2.30;99.90;;;;;;5005048;28;20049;-77
2022/04/02 01:07:21;;;;;;;5.68;3.40;;;2.20;99.90;;;;;;5005288;28;20038;-77
2022/04/02 01:09:47;;;;;;;11.13;3.65;;;2.20;99.90;;;;;;5006587;28;20077;-77
2022/04/02 01:12:12;;;;;;;6.20;3.50;;;2.20;99.90;;;;;;5007749;28;20530;-77
2022/04/02 01:14:38;;;;;;;7.60;3.67;;;2.20;99.90;;;;;;5007352;28;20041;-77
2022/04/02 01:17:05;;;;;;;7.75;3.45;;;2.20;99.90;;;;;;4999906;28;20094;-77
2022/04/02 01:19:31;;;;;;;5.85;3.38;;;2.20;99.90;;;;;;5006257;28;20114;-77
2022/04/02 01:21:57;;;;;;;7.97;3.38;;;2.20;99.90;;;;;;5008888;28;20497;-77
2022/04/02 01:24:22;;;;;;;4.65;3.30;;;2.20;99.90;;;;;;5005263;28;20152;-77
2022/04/02 01:26:48;;;;;;;7.60;3.67;;;2.20;99.90;;;;;;5005068;28;20042;-77
2022/04/02 01:29:18;;;;;;;5.82;3.40;;;2.20;99.90;;;;;;5006857;28;20124;-77
2022/04/02 01:31:44;;;;;;;6.38;3.60;;;2.20;99.90;;;;;;5005682;28;20045;-77
2022/04/02 01:34:10;;;;;;;7.25;4.22;;;2.20;99.90;;;;;;5003088;28;20399;-77
2022/04/02 01:36:36;;;;;;;5.63;3.35;;;2.20;99.90;;;;;;5005087;28;20034;-77
2022/04/02 01:39:02;;;;;;;5.88;3.83;;;2.20;99.90;;;;;;5004414;28;20044;-77
2022/04/02 01:41:27;;;;;;;5.32;3.63;;;2.20;99.90;;;;;;5107231;27;20539;-77
2022/04/02 01:43:53;;;;;;;6.85;3.47;;;2.20;99.90;;;;;;5005096;28;20147;-77
2022/04/02 01:46:18;;;;;;;5.32;3.17;;;2.20;99.90;;;;;;5005961;28;20049;-77
2022/04/02 01:48:45;;;;;;;4.78;3.20;;;2.20;99.90;;;;;;5008299;28;20478;-77
2022/04/02 01:51:11;;;;;;;7.10;3.67;;;2.20;99.90;;;;;;5005764;28;20054;-77
2022/04/02 01:53:37;;;;;;;6.43;3.70;;;2.20;99.90;;;;;;5004779;28;20092;-77
2022/04/02 01:56:03;;;;;;;6.43;3.40;;;2.20;99.90;;;;;;5004692;28;20049;-77
2022/04/02 01:58:29;;;;;;;5.82;3.70;;;2.10;99.90;;;;;;5005782;28;20483;-78
2022/04/02 02:00:55;;;;;;;4.50;3.13;;;2.10;99.90;;;;;;5003850;28;20072;-77
2022/04/02 02:03:21;;;;;;;6.97;3.63;;;2.10;99.90;;;;;;5007030;28;20034;-77
2022/04/02 02:05:47;;;;;;;6.50;3.60;;;2.10;99.90;;;;;;5006146;28;20046;-77
2022/04/02 02:08:12;;;;;;;5.40;3.55;;;2.10;99.90;;;;;;5004394;28;20200;-77
2022/04/02 02:10:38;;;;;;;5.80;3.38;;;2.10;99.90;;;;;;5008386;28;20045;-77
2022/04/02 02:13:04;;;;;;;6.00;2.90;;;2.10;99.90;;;;;;5015691;28;20038;-77
2022/04/02 02:15:30;;;;;;;6.97;3.60;;;2.10;99.90;;;;;;5002368;28;20080;-77
2022/04/02 02:17:55;;;;;;;7.03;3.47;;;2.10;99.90;;;;;;5002815;28;20136;-77
2022/04/02 02:20:22;;;;;;;5.05;3.20;;;2.10;99.90;;;;;;5003971;28;20076;-77
2022/04/02 02:22:50;;;;;;;5.82;3.20;;;2.00;99.90;;;;;;5004527;28;20060;-77
2022/04/02 02:25:17;;;;;;;7.45;3.40;;;2.00;99.90;;;;;;5001953;28;20511;-77
2022/04/02 02:27:45;;;;;;;6.13;3.92;;;2.00;99.90;;;;;;5004504;28;20485;-77
2022/04/02 02:30:12;;;;;;;;;;;2.00;99.90;;;;;;5004816;28;20046;-77
2022/04/02 02:32:37;;;;;;;7.40;3.28;;;2.00;99.90;;;;;;5106681;27;20403;-77
2022/04/02 02:37:48;;;;;;;6.70;3.45;;;1.90;99.90;;;;;;5003375;28;20054;-77
2022/04/02 02:40:14;;;;;;;6.68;3.53;;;1.90;99.90;;;;;;5004720;28;20435;-77
2022/04/02 02:42:40;;;;;;;5.90;3.50;;;1.90;99.90;;;;;;5004921;28;20435;-77
2022/04/02 02:45:06;;;;;;;5.90;3.42;;;1.90;99.90;;;;;;5003057;28;20141;-77
2022/04/02 02:47:32;;;;;;;5.15;3.42;;;1.90;99.90;;;;;;5004754;28;20033;-76
2022/04/02 02:49:57;;;;;;;8.00;3.40;;;1.90;99.90;;;;;;4999578;28;20053;-77
2022/04/02 02:52:23;;;;;;;5.32;3.28;;;1.80;99.90;;;;;;5006625;28;20125;-77
2022/04/02 02:54:48;;;;;;;7.03;3.72;;;1.90;99.90;;;;;;5004191;28;20120;-77
2022/04/02 02:57:14;;;;;;;6.18;3.72;;;1.80;99.90;;;;;;5006398;28;20114;-77
2022/04/02 02:59:39;;;;;;;8.40;3.70;;;1.80;99.90;;;;;;5007129;28;20038;-78
2022/04/02 03:02:05;;;;;;;7.72;3.28;;;1.80;99.90;;;;;;5003028;28;20534;-77
2022/04/02 03:04:31;;;;;;;7.03;3.55;;;1.80;99.90;;;;;;5002581;28;20042;-77
2022/04/02 03:06:57;;;;;;;8.23;3.85;;;1.80;99.90;;;;;;5005451;28;20041;-77
2022/04/02 03:09:23;;;;;;;8.35;3.72;;;1.80;99.90;;;;;;5002097;28;20217;-77
2022/04/02 03:11:49;;;;;;;6.55;3.47;;;1.70;99.90;;;;;;5005085;28;20440;-76
2022/04/02 03:14:15;;;;;;;8.27;3.60;;;1.70;99.90;;;;;;5000546;28;20445;-76
2022/04/02 03:16:41;;;;;;;5.37;3.37;;;1.70;99.90;;;;;;5002751;28;20073;-76
2022/04/02 03:19:07;;;;;;;7.60;3.20;;;1.70;99.90;;;;;;5000905;28;20080;-77
2022/04/02 03:21:33;;;;;;;6.45;3.60;;;1.60;99.90;;;;;;5007855;28;20053;-76
2022/04/02 03:24:01;;;;;;;6.13;3.55;;;1.60;99.90;;;;;;4999909;28;20029;-77
2022/04/02 03:26:27;;;;;;;6.40;3.65;;;1.60;99.90;;;;;;5006102;28;20053;-76
2022/04/02 03:28:53;;;;;;;5.43;3.63;;;1.60;99.90;;;;;;5003800;28;20042;-76
2022/04/02 03:31:19;;;;;;;7.22;3.40;;;1.60;99.90;;;;;;5002685;28;20704;-77
2022/04/02 03:33:45;;;;;;;6.10;3.80;;;1.60;99.90;;;;;;5002604;28;20388;-77
2022/04/02 03:36:11;;;;;;;5.95;3.50;;;1.60;99.90;;;;;;5003178;28;20038;-77
2022/04/02 03:38:37;;;;;;;7.25;4.03;;;1.60;99.90;;;;;;4999273;28;20077;-77
2022/04/02 03:41:04;;;;;;;6.22;3.38;;;1.60;99.90;;;;;;5002117;28;20074;-77
2022/04/02 03:43:30;;;;;;;8.73;4.20;;;1.60;99.90;;;;;;5004116;28;20436;-77
2022/04/02 03:47:08;;;;;;;7.88;3.63;;;1.60;99.90;;;;;;5001189;28;20501;-77
2022/04/02 03:48:42;;;;;;;5.72;3.53;;;1.60;99.90;;;;;;5107058;28;20132;-77
2022/04/02 03:51:07;;;;;;;7.85;3.78;;;1.60;99.90;;;;;;5003186;28;20297;-78
2022/04/02 03:53:33;;;;;;;7.80;3.60;;;1.60;99.90;;;;;;5002728;28;20068;-78
2022/04/02 03:55:59;;;;;;;7.70;3.72;;;1.50;99.90;;;;;;5001643;28;20038;-77
2022/04/02 03:58:24;;;;;;;6.50;3.58;;;1.60;99.90;;;;;;5001820;28;20071;-77
2022/04/02 04:00:51;;;;;;;7.03;3.88;;;1.50;99.90;;;;;;5002968;28;20070;-77
2022/04/02 04:03:17;;;;;;;7.53;3.63;;;1.50;99.90;;;;;;5003563;28;20053;-77
2022/04/02 04:05:43;;;;;;;6.80;3.67;;;1.50;99.90;;;;;;5012804;28;20053;-77
2022/04/02 04:08:09;;;;;;;8.50;3.60;;;1.50;99.90;;;;;;5009237;28;20046;-77
2022/04/02 04:10:35;;;;;;;9.05;4.28;;;1.50;99.90;;;;;;5001174;28;20050;-77
2022/04/02 04:13:01;;;;;;;6.70;3.50;;;1.50;99.90;;;;;;5003331;28;20046;-77
2022/04/02 04:15:27;;;;;;;8.90;3.90;;;1.50;99.90;;;;;;5001303;28;20516;-77
2022/04/02 04:17:52;;;;;;;5.43;3.97;;;1.40;99.90;;;;;;5009889;28;20052;-77
2022/04/02 04:20:18;;;;;;;6.82;3.88;;;1.40;99.90;;;;;;5003000;28;20042;-77
2022/04/02 04:22:53;;;;;;;8.98;4.10;;;1.40;99.90;;;;;;5004273;28;20034;-77
2022/04/02 04:25:22;;;;;;;8.82;4.25;;;1.40;99.90;;;;;;5005381;28;20050;-78
2022/04/02 04:27:47;;;;;;;8.60;4.32;;;1.40;99.90;;;;;;5005243;28;20125;-77
2022/04/02 04:30:13;;;;;;;8.52;3.72;;;1.30;99.90;;;;;;5004217;28;20117;-77
2022/04/02 04:32:39;;;;;;;7.25;4.50;;;1.30;99.90;;;;;;5007345;28;20041;-77
2022/04/02 04:35:05;;;;;;;8.85;4.43;;;1.30;99.90;;;;;;5006652;28;20050;-77
2022/04/02 04:37:35;;;;;;;9.57;4.18;;;1.30;99.90;;;;;;5007191;28;20046;-78
2022/04/02 04:40:00;;;;;;;8.48;4.53;;;1.30;99.90;;;;;;5004458;28;20057;-77
2022/04/02 04:42:26;;;;;;;6.57;4.13;;;1.30;99.90;;;;;;5013252;28;20481;-77
2022/04/02 04:44:52;;;;;;;8.52;4.07;;;1.30;99.90;;;;;;5005434;28;20088;-78
2022/04/02 04:47:17;;;;;;;7.40;4.40;;;1.30;99.90;;;;;;5007394;28;20102;-77
2022/04/02 04:49:43;;;;;;;9.07;4.60;;;1.30;99.90;;;;;;5007105;28;20041;-77
2022/04/02 04:52:08;;;;;;;6.90;4.40;;;1.30;99.90;;;;;;5005222;28;20043;-78
2022/04/02 04:54:34;;;;;;;8.82;4.50;;;1.30;99.90;;;;;;4996173;28;20042;-77
2022/04/02 04:56:59;;;;;;;10.43;4.78;;;1.30;99.90;;;;;;5004171;28;20046;-77
2022/04/02 04:59:25;;;;;;;8.93;4.35;;;1.30;99.90;;;;;;5008502;28;20045;-77
2022/04/02 05:01:51;;;;;;;9.50;4.35;;;1.30;99.90;;;;;;5005529;28;20038;-77
2022/04/02 05:04:17;;;;;;;10.30;4.95;;;1.30;99.90;;;;;;5002971;28;20050;-78
2022/04/02 05:06:43;;;;;;;9.95;4.68;;;1.30;99.90;;;;;;5007262;28;20053;-77
2022/04/02 05:09:09;;;;;;;7.47;4.35;;;1.30;99.90;;;;;;5003329;28;20046;-77
2022/04/02 05:11:39;;;;;;;9.05;4.97;;;1.30;99.90;;;;;;5006274;28;20050;-77
2022/04/02 05:14:05;;;;;;;7.25;4.53;;;1.30;99.90;;;;;;5004238;28;20122;-77
2022/04/02 05:16:31;;;;;;;9.40;4.63;;;1.30;99.90;;;;;;5001471;28;20543;-77
2022/04/02 05:18:56;;;;;;;7.95;4.28;;;1.40;99.90;;;;;;5018640;28;20041;-77
2022/04/02 05:21:22;;;;;;;8.07;4.25;;;1.30;99.90;;;;;;5011366;28;20047;-77
2022/04/02 05:23:48;;;;;;;9.35;4.63;;;1.30;99.90;;;;;;5003916;28;20446;-77
2022/04/02 05:26:13;;;;;;;9.38;5.00;;;1.30;99.90;;;;;;5003474;28;20051;-77
2022/04/02 05:28:39;;;;;;;8.45;4.53;;;1.30;99.90;;;;;;5004632;28;20113;-77
2022/04/02 05:31:04;;;;;;;8.65;4.50;;;1.40;99.90;;;;;;5006253;28;20046;-77
2022/04/02 05:33:30;;;;;;;7.03;4.60;;;1.40;99.90;;;;;;5005635;28;20043;-77
2022/04/02 05:35:57;;;;;;;8.30;4.78;;;1.40;99.90;;;;;;5007087;28;20492;-77
2022/04/02 05:38:23;;;;;;;7.82;4.35;;;1.40;99.90;;;;;;5006505;28;20057;-77
2022/04/02 05:40:48;;;;;;;8.77;4.60;;;1.40;99.90;;;;;;5004757;28;20038;-77
2022/04/02 05:43:14;;;;;;;7.68;5.07;;;1.40;99.90;;;;;;5005227;28;20463;-77
2022/04/02 05:45:40;;;;;;;7.18;4.90;;;1.40;99.90;;;;;;5005561;28;20576;-77
2022/04/02 05:48:06;;;;;;;7.35;4.80;;;1.40;99.90;;;;;;5005254;28;20049;-77
2022/04/02 05:50:32;;;;;;;10.30;4.68;;;1.40;99.90;;;;;;5003546;28;20049;-76
2022/04/02 05:52:57;;;;;;;8.55;4.72;;;1.40;99.90;;;;;;5005709;28;20052;-77
2022/04/02 05:55:23;;;;;;;11.38;4.72;;;1.40;99.90;;;;;;5004243;28;20087;-77
2022/04/02 05:57:49;;;;;;;10.07;5.40;;;1.40;99.90;;;;;;5006428;28;20041;-77
2022/04/02 06:00:17;;;;;;;8.25;4.47;;;1.40;99.90;;;;;;4999904;28;20504;-77
2022/04/02 06:02:44;;;;;;;8.48;5.20;;;1.40;99.90;;;;;;5005175;28;20054;-77
2022/04/02 06:05:11;;;;;;;10.70;5.28;;;1.50;99.90;;;;;;5000429;28;20820;-77
2022/04/02 06:07:37;;;;;;;;;;;1.50;99.90;;;;;;5024998;28;20094;-76
2022/04/02 06:10:04;;;;;;;8.43;4.50;;;1.50;99.90;;;;;;5005692;28;19929;-79
2022/04/02 06:12:31;;;;;;;9.43;5.32;;;1.50;99.90;;;;;;4998668;28;20073;-77
2022/04/02 06:14:58;;;;;;;8.05;5.25;;;1.60;99.90;;;;;;5094780;27;20056;-78
2022/04/02 06:17:24;;;;;;;11.13;4.93;;;1.60;99.90;;;;;;5003878;28;20493;-78
2022/04/02 06:19:53;;;;;;;9.65;5.70;;;1.60;99.90;;;;;;5004610;28;20057;-78
2022/04/02 06:22:19;;;;;;;9.45;5.25;;;1.70;99.90;;;;;;5005864;28;20034;-78
2022/04/02 06:24:44;;;;;;;11.40;5.30;;;1.70;99.90;;;;;;5005043;28;20053;-77
2022/04/02 06:27:10;;;;;;;8.70;4.85;;;1.70;99.90;;;;;;5002589;28;20045;-77
2022/04/02 06:29:36;;;;;;;10.77;5.20;;;1.80;99.90;;;;;;5009508;28;20103;-79
2022/04/02 06:32:10;;;;;;;13.88;5.60;;;1.70;99.90;;;;;;5000138;28;20042;-80
2022/04/02 06:34:36;;;;;;;11.55;5.00;;;1.80;99.90;;;;;;5005820;28;20042;-79
2022/04/02 06:37:02;;;;;;;8.57;5.22;;;1.80;99.90;;;;;;5002340;28;20428;-80
2022/04/02 06:39:27;;;;;;;10.38;5.43;;;1.80;99.90;;;;;;5006354;28;20034;-79
2022/04/02 06:41:53;;;;;;;11.93;5.63;;;1.80;99.90;;;;;;5003080;28;20061;-79
2022/04/02 06:44:18;;;;;;;9.80;5.05;;;1.80;99.90;;;;;;5004505;28;20139;-79
2022/04/02 06:46:44;;;;;;;9.90;5.45;;;1.80;99.90;;;;;;5002488;28;20081;-80
2022/04/02 06:49:10;;;;;;;10.68;5.30;;;1.90;99.90;;;;;;5001183;28;20393;-80
2022/04/02 06:51:36;;;;;;;10.30;5.38;;;1.90;99.90;;;;;;5000114;28;20069;-80
2022/04/02 06:54:02;;;;;;;8.45;5.00;;;2.00;99.90;;;;;;5001599;28;20408;-80
2022/04/02 06:56:28;;;;;;;8.90;5.45;;;2.00;99.90;;;;;;5004846;28;20048;-79
2022/04/02 06:58:53;;;;;;;10.25;5.00;;;2.00;99.90;;;;;;5002077;28;20057;-80
2022/04/02 07:01:19;;;;;;;8.27;5.20;;;2.10;99.90;;;;;;5001815;28;20045;-80
2022/04/02 07:03:44;;;;;;;8.73;5.32;;;2.10;99.90;;;;;;5003033;28;20056;-80
2022/04/02 07:06:10;;;;;;;9.13;5.55;;;2.20;99.90;;;;;;5003134;28;20124;-80
2022/04/02 07:08:36;;;;;;;10.63;5.57;;;2.20;99.90;;;;;;4999729;28;20460;-80
2022/04/02 07:11:03;;;;;;;7.18;5.30;;;2.20;99.90;;;;;;5103337;27;20601;-80
2022/04/02 07:13:29;;;;;;;13.70;5.60;;;2.20;99.90;;;;;;5003779;28;20038;-80
2022/04/02 07:15:55;;;;;;;8.88;5.40;;;2.30;99.90;;;;;;5002585;28;20474;-80
2022/04/02 07:18:23;;;;;;;11.60;5.15;;;2.30;99.90;;;;;;5001742;28;20046;-80
2022/04/02 07:20:56;;;;;;;9.70;4.88;;;2.40;99.90;;;;;;5003659;28;20136;-80
2022/04/02 07:23:21;;;;;;;7.53;5.13;;;2.40;99.90;;;;;;5002098;28;20496;-80
2022/04/02 07:25:50;;;;;;;12.48;6.32;;;2.50;99.90;;;;;;5006925;28;20057;-80
2022/04/02 07:28:16;;;;;;;11.13;5.57;;;2.50;99.90;;;;;;5002173;28;20128;-80
2022/04/02 07:30:41;;;;;;;11.60;5.97;;;2.60;99.90;;;;;;5002363;28;20472;-80
2022/04/02 07:33:07;;;;;;;8.23;5.13;;;2.60;99.90;;;;;;4998208;28;20038;-82
2022/04/02 07:35:52;;;;;;;8.85;5.70;;;2.70;99.90;;;;;;5003110;28;20100;-77
2022/04/02 07:38:42;;;;;;;9.63;5.63;;;2.70;99.90;;;;;;4999281;28;20142;-77
2022/04/02 07:41:50;;;;;;;8.63;5.05;;;2.80;99.90;;;;;;4993720;28;20054;-80
2022/04/02 07:45:01;;;;;;;8.95;5.07;;;2.90;99.90;;;;;;5011493;28;20053;-77
2022/04/02 07:47:31;;;;;;;7.60;5.15;;;2.90;99.90;;;;;;5003334;28;20046;-79
2022/04/02 07:50:04;;;;;;;8.95;5.75;;;3.00;99.90;;;;;;5010940;28;20468;-77
2022/04/02 07:52:30;;;;;;;10.93;5.35;;;3.00;99.90;;;;;;5024389;28;20041;-75
2022/04/02 07:54:58;;;;;;;10.25;5.18;;;3.10;99.90;;;;;;5003907;28;20086;-76
2022/04/02 07:57:27;;;;;;;;;;;3.20;99.90;;;;;;5004362;28;20400;-77
2022/04/02 07:59:59;;;;;;;9.82;5.15;;;3.20;99.90;;;;;;5002080;28;19921;-77
2022/04/02 08:02:39;;;;;;;9.45;4.90;;;3.30;99.90;;;;;;5005104;28;20456;-76
2022/04/02 08:05:11;;;;;;;7.88;5.05;;;3.40;99.90;;;;;;5109497;27;20066;-76
2022/04/02 08:07:44;;;;;;;7.38;4.70;;;3.40;99.90;;;;;;5013706;28;20091;-76
2022/04/02 08:10:12;;;;;;;10.70;4.85;;;3.50;99.90;;;;;;5009088;28;20496;-76
2022/04/02 08:12:39;;;;;;;8.88;4.35;;;3.60;99.90;;;;;;4991342;28;20100;-81
2022/04/02 08:15:09;;;;;;;7.38;4.78;;;3.60;99.90;;;;;;5007425;28;20462;-82
2022/04/02 08:17:37;;;;;;;8.43;4.95;;;3.70;99.90;;;;;;5008353;28;20053;-80
2022/04/02 08:20:04;;;;;;;8.52;4.53;;;3.80;99.90;;;;;;5110567;27;20100;-80
2022/04/02 08:22:29;;;;;;;7.25;4.32;;;3.80;99.90;;;;;;5028755;28;20496;-78
2022/04/02 08:24:56;;;;;;;9.48;5.00;;;3.90;99.90;;;;;;5009068;28;20084;-81
2022/04/02 08:27:49;;;;;;;11.47;4.43;;;4.00;99.90;;;;;;5008560;28;20501;-80
2022/04/02 08:30:18;;;;;;;7.57;4.60;;;4.00;99.90;;;;;;5025987;28;20300;-76
2022/04/02 08:33:27;;;;;;;7.60;4.30;;;4.10;99.90;;;;;;5004365;28;20380;-80
2022/04/02 08:36:15;;;;;;;6.57;4.05;;;4.20;99.90;;;;;;5006502;28;20489;-79
2022/04/02 08:38:54;;;;;;;8.35;4.82;;;4.30;99.90;;;;;;5008374;28;20106;-80
2022/04/02 08:41:57;;;;;;;5.68;3.47;;;4.40;99.90;;;;;;5007998;28;20489;-79
2022/04/02 08:44:57;;;;;;;9.50;3.95;;;4.50;99.90;;;;;;5106320;27;20700;-81
2022/04/02 08:47:25;;;;;;;6.88;3.72;;;4.50;99.90;;;;;;5021830;28;20046;-81
2022/04/02 08:50:12;;;;;;;7.38;3.60;;;4.70;99.90;;;;;;5014599;28;20050;-83
2022/04/02 08:53:00;;;;;;;8.38;3.72;;;4.80;99.90;;;;;;5008222;28;20119;-82
2022/04/02 08:55:44;;;;;;;5.22;3.10;;;4.90;99.90;;;;;;5008142;28;20089;-82
2022/04/02 08:58:31;;;;;;;8.57;3.75;;;4.90;98.20;;;;;;5006948;28;20065;-81
2022/04/02 09:01:04;;;;;;;6.53;3.30;;;4.90;99.30;;;;;;5013011;28;20449;-82
2022/04/02 09:03:49;;;;;;;5.95;3.72;;;4.90;96.50;;;;;;5006317;28;20487;-82
2022/04/02 09:06:20;;;;;;;3.53;2.92;;;5.00;96.70;;;;;;5008770;28;20056;-81
2022/04/02 09:09:05;;;;;;;5.45;3.10;;;5.10;94.00;;;;;;5008517;28;20501;-82
2022/04/02 09:11:46;;;;;;;4.18;2.95;;;5.20;88.90;;;;;;5008993;28;20049;-81
2022/04/02 09:14:18;;;;;;;4.53;2.88;;;5.20;90.30;;;;;;5009778;28;20053;-79
2022/04/02 09:17:04;;;;;;;5.55;2.88;;;5.40;90.40;;;;;;5017357;28;20064;-80
2022/04/02 09:19:52;;;;;;;6.40;3.03;;;5.50;85.90;;;;;;5015945;28;20054;-80
2022/04/02 09:22:50;;;;;;;6.32;3.03;;;5.40;77.10;;;;;;5095336;28;20078;-81
2022/04/02 09:25:33;;;;;;;4.53;2.60;;;5.40;75.70;;;;;;5001119;28;20348;-81
2022/04/02 09:28:09;;;;;;;7.00;3.08;;;5.50;75.50;;;;;;5006567;28;20054;-77
2022/04/02 09:30:54;;;;;;;4.40;2.67;;;5.50;74.00;;;;;;5005702;28;20065;-74
2022/04/02 09:34:10;;;;;;;4.75;3.13;;;5.40;74.20;;;;;;5009425;28;20045;-79
2022/04/02 09:37:03;;;;;;;5.78;3.20;;;5.40;72.80;;;;;;5028409;28;20049;-80
2022/04/02 09:39:31;;;;;;;6.28;3.30;;;5.30;74.40;;;;;;5006134;28;20543;-80
2022/04/02 09:42:38;;;;;;;6.43;3.40;;;5.30;73.60;;;;;;5018254;28;20034;-79
2022/04/02 09:45:12;;;;;;;4.18;3.17;;;5.20;73.30;;;;;;5104443;27;20052;-81
2022/04/02 09:48:06;;;;;;;4.65;2.78;;;5.10;74.50;;;;;;4999631;28;20086;-79
2022/04/02 09:50:32;;;;;;;4.13;3.13;;;5.10;74.90;;;;;;4993181;28;20042;-82
2022/04/02 09:53:14;;;;;;;5.50;2.75;;;5.00;73.30;;;;;;5006357;28;20602;-81
2022/04/02 09:56:02;;;;;;;6.20;3.20;;;5.00;72.60;;;;;;5000306;28;20057;-81
2022/04/02 09:58:36;;;;;;;;;;;5.00;71.60;;;;;;5008700;28;20074;-80
2022/04/02 10:01:05;;;;;;;5.60;3.30;;;5.00;76.10;;;;;;5005682;28;19922;-81
2022/04/02 10:03:39;;;;;;;5.38;3.47;;;5.10;77.30;;;;;;5007576;28;20068;-75
2022/04/02 10:06:34;;;;;;;6.45;3.10;;;5.20;77.40;;;;;;5009173;28;20448;-78
2022/04/02 10:09:10;;;;;;;5.32;2.90;;;5.30;73.30;;;;;;5005575;28;20050;-82
2022/04/02 10:11:41;;;;;;;7.50;2.77;;;5.40;73.00;;;;;;5010011;28;20128;-84
2022/04/02 10:14:08;;;;;;;4.57;2.90;;;5.60;71.30;;;;;;5005565;28;20437;-77
2022/04/02 10:16:35;;;;;;;4.63;2.47;;;5.70;71.30;;;;;;5006129;28;20129;-72
2022/04/02 10:19:05;;;;;;;3.75;2.13;;;5.90;67.70;;;;;;5007606;28;20069;-74
2022/04/02 10:21:35;;;;;;;4.55;2.50;;;6.10;66.70;;;;;;5022617;28;20051;-76
2022/04/02 10:24:18;;;;;;;4.55;2.50;;;6.20;64.60;;;;;;5004109;28;20072;-75
2022/04/02 10:26:56;;;;;;;6.28;2.70;;;6.40;64.30;;;;;;5007732;28;20512;-84
2022/04/02 10:30:09;;;;;;;6.15;2.60;;;6.50;68.30;;;;;;5006973;28;20129;-81
2022/04/02 10:32:54;;;;;;;5.85;2.70;;;6.40;74.90;;;;;;5026878;28;20042;-81
2022/04/02 10:35:27;;;;;;;6.65;2.60;;;6.20;78.40;;;;;;5025539;28;20045;-80
2022/04/02 10:38:08;;;;;;;7.72;2.90;;;6.00;78.80;;;;;;5014325;28;20054;-80
2022/04/02 10:40:45;;;;;;;6.18;2.72;;;5.80;80.90;;;;;;5005688;28;20396;-84
2022/04/02 10:43:20;;;;;;;5.10;2.67;;;5.70;85.20;;;;;;5021977;28;20060;-80
2022/04/02 10:45:47;;;;;;;6.10;2.58;;;5.60;85.00;;;;;;5006905;28;20512;-75
2022/04/02 10:48:13;;;;;;;5.53;2.60;;;5.50;86.10;;;;;;5002767;28;20045;-75
2022/04/02 10:50:41;;;;;;;4.50;2.67;;;5.40;86.70;;;;;;5005829;28;20046;-73
2022/04/02 10:53:09;;;;;;;;;;;5.40;85.10;;;;;;5008655;28;20067;-76
2022/04/02 10:55:42;;;;;;;3.05;2.08;;;5.30;86.30;;;;;;5021955;28;19927;-79
2022/04/02 10:58:11;;;;;;;4.75;2.58;;;5.20;85.20;;;;;;5075257;28;20103;-77
2022/04/02 11:00:39;;;;;;;5.47;2.67;;;5.20;83.80;;;;;;5109026;27;20400;-78
2022/04/02 11:03:06;;;;;;;3.55;2.22;;;5.20;82.30;;;;;;5005861;28;20046;-79
2022/04/02 11:05:36;;;;;;;4.88;2.10;;;5.20;81.20;;;;;;5005928;28;20413;-78
2022/04/02 11:08:10;;;;;;;4.00;2.20;;;5.20;73.90;;;;;;5006017;28;20045;-79
2022/04/02 11:10:36;;;;;;;4.82;2.47;;;5.20;72.70;;;;;;5000560;28;20400;-78
2022/04/02 11:13:06;;;;;;;4.97;2.33;;;5.10;73.00;;;;;;5005405;28;20042;-79
2022/04/02 11:15:43;;;;;;;4.47;2.20;;;5.10;73.50;;;;;;5019138;28;20070;-77
2022/04/02 11:18:17;;;;;;;6.80;2.45;;;5.10;74.80;;;;;;5009571;28;20511;-78
2022/04/02 11:20:43;;;;;;;3.65;2.03;;;5.10;72.00;;;;;;5009267;28;20565;-77
2022/04/02 11:23:19;;;;;;;7.13;2.63;;;5.20;72.90;;;;;;5025471;28;20038;-77
2022/04/02 11:25:50;;;;;;;5.10;2.42;;;5.30;71.30;;;;;;5006584;28;20053;-78
2022/04/02 11:28:21;;;;;;;3.75;2.42;;;5.30;73.00;;;;;;5005370;28;20044;-79
2022/04/02 11:31:05;;;;;;;4.00;2.25;;;5.50;70.10;;;;;;5019027;28;20049;-83
2022/04/02 11:33:32;;;;;;;6.15;2.60;;;5.50;68.90;;;;;;5006981;28;20049;-83
2022/04/02 11:36:06;;;;;;;4.88;2.30;;;5.60;68.00;;;;;;5006987;28;20125;-83
2022/04/02 11:38:50;;;;;;;4.82;2.47;;;5.70;68.00;;;;;;5006724;28;20042;-83
2022/04/02 11:41:27;;;;;;;4.53;2.40;;;5.80;69.30;;;;;;5006227;28;20385;-83
2022/04/02 11:44:05;;;;;;;5.30;2.45;;;5.90;66.90;;;;;;5006824;28;20044;-83
2022/04/02 11:46:50;;;;;;;4.65;2.42;;;6.10;66.90;;;;;;5006299;28;20136;-82
2022/04/02 11:49:29;;;;;;;5.93;2.60;;;6.10;65.10;;;;;;5006628;28;20496;-83
2022/04/02 11:52:07;;;;;;;5.88;2.65;;;6.20;67.10;;;;;;5006923;28;20122;-83
2022/04/02 11:54:59;;;;;;;4.93;2.20;;;6.30;68.60;;;;;;5006841;28;20494;-83
2022/04/02 11:57:24;;;;;;;4.25;2.45;;;6.30;67.60;;;;;;5004148;28;20061;-82
2022/04/02 12:00:05;;;;;;;4.35;2.75;;;6.50;69.40;;;;;;5006044;28;20034;-73
2022/04/02 12:02:37;;;;;;;4.15;1.95;;;6.50;67.20;;;;;;5005656;28;20561;-85
2022/04/02 12:05:05;;;;;;;3.33;2.42;;;6.50;64.00;;;;;;5003807;28;20061;-75
2022/04/02 12:07:46;;;;;;;3.00;1.90;;;6.50;64.60;;;;;;5005469;28;20056;-75
2022/04/02 12:10:16;;;;;;;4.13;2.30;;;6.60;65.70;;;;;;5095924;27;20060;-80
2022/04/02 12:12:46;;;;;;;3.55;1.90;;;6.60;62.80;;;;;;5004518;28;20034;-79
2022/04/02 12:15:13;;;;;;;2.92;1.75;;;6.60;60.10;;;;;;5004238;28;20042;-81
2022/04/02 12:17:39;;;;;;;2.60;2.00;;;6.60;57.50;;;;;;5004333;28;20040;-78
2022/04/02 12:20:10;;;;;;;2.60;1.95;;;6.70;57.80;;;;;;5006298;28;20053;-79
2022/04/02 12:22:39;;;;;;;3.28;2.20;;;6.70;57.80;;;;;;5010662;28;20117;-79
2022/04/02 12:25:08;;;;;;;5.55;2.13;;;6.70;57.30;;;;;;5009336;28;20049;-79
2022/04/02 12:27:38;;;;;;;5.03;2.17;;;6.80;58.30;;;;;;5023150;28;20051;-79
2022/04/02 12:30:07;;;;;;;5.63;2.42;;;6.50;60.20;;;;;;5001211;28;20038;-81
2022/04/02 12:32:44;;;;;;;3.95;2.13;;;6.30;62.40;;;;;;5005508;28;20508;-80
2022/04/02 12:35:13;;;;;;;4.53;2.05;;;6.10;64.10;;;;;;5003881;28;20049;-80
2022/04/02 12:37:50;;;;;;;3.42;2.05;;;5.90;65.50;;;;;;5002398;28;20048;-81
2022/04/02 12:40:22;;;;;;;4.60;1.95;;;5.70;67.10;;;;;;5005021;28;20057;-78
2022/04/02 12:42:53;;;;;;;4.53;1.90;;;5.60;66.20;;;;;;5047244;28;20501;-78
2022/04/02 12:45:22;;;;;;;4.07;1.90;;;5.60;66.20;;;;;;5009669;28;20050;-78
2022/04/02 12:48:20;;;;;;;4.88;2.28;;;5.50;64.60;;;;;;5006138;28;20053;-78
2022/04/02 12:50:57;;;;;;;3.10;1.90;;;5.50;65.80;;;;;;5023845;28;20520;-81
2022/04/02 12:53:27;;;;;;;5.65;2.55;;;5.50;66.50;;;;;;5013447;28;20040;-80
2022/04/02 12:55:54;;;;;;;6.03;2.20;;;5.50;66.70;;;;;;5006182;28;20125;-81
2022/04/02 12:58:36;;;;;;;3.47;2.03;;;5.50;67.60;;;;;;5009469;28;20460;-81
2022/04/02 13:01:15;;;;;;;4.65;2.03;;;5.60;67.30;;;;;;5009683;28;20050;-80
2022/04/02 13:04:06;;;;;;;2.67;1.92;;;5.70;64.40;;;;;;5009406;28;20562;-79
2022/04/02 13:06:46;;;;;;;4.57;1.67;;;5.80;63.40;;;;;;5010375;28;20056;-81
2022/04/02 13:09:20;;;;;;;3.55;1.90;;;5.90;62.70;;;;;;5009813;28;20107;-81
2022/04/02 13:12:03;;;;;;;5.25;1.98;;;6.10;60.20;;;;;;5008411;28;20512;-80
2022/04/02 13:14:35;;;;;;;3.30;1.90;;;6.20;57.20;;;;;;5006890;28;20061;-80
2022/04/02 13:17:11;;;;;;;8.70;2.08;;;6.40;58.60;;;;;;5006811;28;20266;-80
2022/04/02 13:22:41;;;;;;;3.92;1.67;;;6.50;53.20;;;;;;5008499;28;20390;-79
2022/04/02 13:25:18;;;;;;;4.32;1.85;;;6.40;55.10;;;;;;5008124;28;20103;-79